createdAt,value
2022-12-06T00:01:39.110Z,1.99
2022-12-06T00:04:11.589Z,2.01
2022-12-06T00:06:48.346Z,1.93
2022-12-06T00:09:22.809Z,1.92
2022-12-06T00:11:50.647Z,1.92
2022-12-06T00:14:18.468Z,1.88
2022-12-06T00:16:45.814Z,1.86
2022-12-06T00:19:16.647Z,1.91
2022-12-06T00:21:44.745Z,1.90
2022-12-06T00:24:16.462Z,1.86
2022-12-06T00:26:46.277Z,1.82
2022-12-06T00:29:22.819Z,1.82
2022-12-06T00:31:50.653Z,1.85
2022-12-06T00:34:18.097Z,1.91
2022-12-06T00:36:45.132Z,1.93
2022-12-06T00:39:15.852Z,1.96
2022-12-06T00:41:43.501Z,1.93
2022-12-06T00:44:11.195Z,1.89
2022-12-06T00:46:38.696Z,1.88
2022-12-06T00:49:07.557Z,1.99
2022-12-06T00:51:36.663Z,2.18
2022-12-06T00:54:04.497Z,2.17
2022-12-06T00:56:32.655Z,2.36
2022-12-06T00:59:00.071Z,2.34
2022-12-06T01:01:31.166Z,2.30
2022-12-06T01:04:02.474Z,2.37
2022-12-06T01:06:32.765Z,2.29
2022-12-06T01:09:07.739Z,2.11
2022-12-06T01:11:35.191Z,1.98
2022-12-06T01:14:02.674Z,2.10
2022-12-06T01:16:31.575Z,1.98
2022-12-06T01:19:01.474Z,1.79
2022-12-06T01:21:29.366Z,1.73
2022-12-06T01:23:56.801Z,1.83
2022-12-06T01:26:31.272Z,1.71
2022-12-06T01:28:59.477Z,1.71
2022-12-06T01:31:33.614Z,1.69
2022-12-06T01:34:02.726Z,1.73
2022-12-06T01:36:29.877Z,1.74
2022-12-06T01:38:58.849Z,1.73
2022-12-06T01:41:28.087Z,1.72
2022-12-06T01:43:56.339Z,1.71
2022-12-06T01:46:42.919Z,1.69
2022-12-06T01:49:13.001Z,1.71
2022-12-06T01:51:49.917Z,1.70
2022-12-06T01:54:18.815Z,1.70
2022-12-06T01:56:47.115Z,1.71
2022-12-06T01:59:15.109Z,1.75
2022-12-06T02:01:42.350Z,1.78
2022-12-06T02:04:09.812Z,1.76
2022-12-06T02:06:39.749Z,1.75
2022-12-06T02:09:09.650Z,1.75
2022-12-06T02:11:37.250Z,1.80
2022-12-06T02:14:11.136Z,1.82
2022-12-06T02:16:59.805Z,1.83
2022-12-06T02:19:59.604Z,1.94
2022-12-06T02:22:56.544Z,1.85
2022-12-06T02:25:44.444Z,1.83
2022-12-06T02:28:53.506Z,2.12
2022-12-06T02:31:35.340Z,1.97
2022-12-06T02:34:26.137Z,1.92
2022-12-06T02:37:03.820Z,1.84
2022-12-06T02:39:58.421Z,1.79
2022-12-06T02:42:34.262Z,1.88
2022-12-06T02:45:11.513Z,1.94
2022-12-06T02:47:39.453Z,2.19
2022-12-06T02:50:16.676Z,2.10
2022-12-06T02:52:48.968Z,1.98
2022-12-06T02:55:17.929Z,2.06
2022-12-06T02:57:49.650Z,2.12
2022-12-06T03:00:46.315Z,2.26
2022-12-06T03:03:54.824Z,2.25
2022-12-06T03:07:05.248Z,2.20
2022-12-06T03:09:37.317Z,2.45
2022-12-06T03:12:35.513Z,2.42
2022-12-06T03:15:23.807Z,2.43
2022-12-06T03:17:59.053Z,2.34
2022-12-06T03:20:57.801Z,2.30
2022-12-06T03:23:33.059Z,2.33
2022-12-06T03:26:02.233Z,2.36
2022-12-06T03:28:31.010Z,2.31
2022-12-06T03:31:06.278Z,2.38
2022-12-06T03:33:35.490Z,2.64
2022-12-06T03:36:03.180Z,2.74
2022-12-06T03:38:37.107Z,2.53
2022-12-06T03:41:06.788Z,2.50
2022-12-06T03:43:34.503Z,2.47
2022-12-06T03:46:30.603Z,2.41
2022-12-06T03:49:27.214Z,2.18
2022-12-06T03:51:54.607Z,2.17
2022-12-06T03:54:21.794Z,2.53
2022-12-06T03:56:48.774Z,2.55
2022-12-06T03:59:15.704Z,2.66
2022-12-06T04:01:42.657Z,2.76
2022-12-06T04:04:10.906Z,2.73
2022-12-06T04:06:38.043Z,2.76
2022-12-06T04:09:23.707Z,2.76
2022-12-06T04:11:50.671Z,2.54
2022-12-06T04:14:17.694Z,2.38
2022-12-06T04:17:03.137Z,2.24
2022-12-06T04:19:30.205Z,2.18
2022-12-06T04:22:15.689Z,2.12
2022-12-06T04:24:42.629Z,2.07
2022-12-06T04:27:28.157Z,2.02
2022-12-06T04:30:13.316Z,2.03
2022-12-06T04:32:59.068Z,2.18
2022-12-06T04:35:44.439Z,2.47
2022-12-06T04:38:30.541Z,2.42
2022-12-06T04:40:57.479Z,2.49
2022-12-06T04:43:42.345Z,2.57
2022-12-06T04:46:11.450Z,2.55
2022-12-06T04:48:39.776Z,2.53
2022-12-06T04:51:07.232Z,2.52
2022-12-06T04:53:34.384Z,2.56
2022-12-06T04:56:01.684Z,2.57
2022-12-06T04:58:28.681Z,2.72
2022-12-06T05:00:56.039Z,2.65
2022-12-06T05:03:23.136Z,2.73
2022-12-06T05:05:50.442Z,2.75
2022-12-06T05:08:17.472Z,2.63
2022-12-06T05:10:48.788Z,2.79
2022-12-06T05:13:17.556Z,2.79
2022-12-06T05:15:57.757Z,3.03
2022-12-06T05:18:26.029Z,2.95
2022-12-06T05:21:04.184Z,3.03
2022-12-06T05:23:32.083Z,2.87
2022-12-06T05:26:01.613Z,2.71
2022-12-06T05:28:29.933Z,2.63
2022-12-06T05:30:57.599Z,2.82
2022-12-06T05:33:25.394Z,2.85
2022-12-06T05:35:52.399Z,2.76
2022-12-06T05:38:20.219Z,2.79
2022-12-06T05:40:47.864Z,2.79
2022-12-06T05:43:15.341Z,3.19
2022-12-06T05:45:43.483Z,3.24
2022-12-06T05:48:10.715Z,3.25
2022-12-06T05:50:37.644Z,3.07
2022-12-06T05:53:04.667Z,2.83
2022-12-06T05:55:31.681Z,2.64
2022-12-06T05:57:58.634Z,2.55
2022-12-06T06:00:25.765Z,2.44
2022-12-06T06:02:53.129Z,2.43
2022-12-06T06:05:20.312Z,2.41
2022-12-06T06:07:47.604Z,2.46
2022-12-06T06:10:15.868Z,2.53
2022-12-06T06:12:44.734Z,2.56
2022-12-06T06:15:13.498Z,2.51
2022-12-06T06:17:40.856Z,2.65
2022-12-06T06:20:11.516Z,2.83
2022-12-06T06:22:40.188Z,2.90
2022-12-06T06:25:07.847Z,2.97
2022-12-06T06:27:37.693Z,2.87
2022-12-06T06:30:08.466Z,2.89
2022-12-06T06:32:36.459Z,2.77
2022-12-06T06:35:05.061Z,3.02
2022-12-06T06:37:33.034Z,3.11
2022-12-06T06:40:01.058Z,3.06
2022-12-06T06:42:28.239Z,3.02
2022-12-06T06:44:55.462Z,2.79
2022-12-06T06:47:23.464Z,3.04
2022-12-06T06:49:50.515Z,2.96
2022-12-06T06:52:17.563Z,2.67
2022-12-06T06:54:44.494Z,2.52
2022-12-06T06:57:17.137Z,2.46
2022-12-06T06:59:45.646Z,2.54
2022-12-06T07:02:14.862Z,2.50
2022-12-06T07:04:42.375Z,2.74
2022-12-06T07:07:09.500Z,2.88
2022-12-06T07:09:36.745Z,2.94
2022-12-06T07:12:04.474Z,3.04
2022-12-06T07:14:31.745Z,3.08
2022-12-06T07:17:00.746Z,3.13
2022-12-06T07:19:27.784Z,3.20
2022-12-06T07:21:54.771Z,3.19
2022-12-06T07:24:21.809Z,2.94
2022-12-06T07:26:48.762Z,2.73
2022-12-06T07:29:15.820Z,2.77
2022-12-06T07:31:42.820Z,2.79
2022-12-06T07:34:10.233Z,2.75
2022-12-06T07:36:37.321Z,2.80
2022-12-06T07:39:04.378Z,3.05
2022-12-06T07:41:49.765Z,3.25
2022-12-06T07:44:58.306Z,3.28
2022-12-06T07:47:41.450Z,3.21
2022-12-06T07:50:26.272Z,3.41
2022-12-06T07:52:53.447Z,3.58
2022-12-06T07:55:20.460Z,3.60
2022-12-06T07:57:47.412Z,3.59
2022-12-06T08:00:16.308Z,3.54
2022-12-06T08:02:43.810Z,3.59
2022-12-06T08:05:11.489Z,3.49
2022-12-06T08:07:39.307Z,3.31
2022-12-06T08:10:07.383Z,3.06
2022-12-06T08:12:34.384Z,2.88
2022-12-06T08:15:01.317Z,2.86
2022-12-06T08:17:30.133Z,3.12
2022-12-06T08:19:57.289Z,3.20
2022-12-06T08:22:24.345Z,3.29
2022-12-06T08:24:51.374Z,3.74
2022-12-06T08:27:18.312Z,3.98
2022-12-06T08:29:45.531Z,4.19
2022-12-06T08:32:12.563Z,4.14
2022-12-06T08:34:39.545Z,4.21
2022-12-06T08:37:06.501Z,4.11
2022-12-06T08:39:33.447Z,4.06
2022-12-06T08:42:02.941Z,4.05
2022-12-06T08:44:32.244Z,4.05
2022-12-06T08:47:01.944Z,4.24
2022-12-06T08:49:30.171Z,4.03
2022-12-06T08:51:58.716Z,3.61
2022-12-06T08:54:26.115Z,3.51
2022-12-06T08:56:53.630Z,3.41
2022-12-06T08:59:20.867Z,3.16
2022-12-06T09:01:48.168Z,3.02
2022-12-06T09:04:15.647Z,2.94
2022-12-06T09:06:44.703Z,3.01
2022-12-06T09:09:14.427Z,3.00
2022-12-06T09:11:42.030Z,2.91
2022-12-06T09:14:21.168Z,2.83
2022-12-06T09:16:49.926Z,2.84
2022-12-06T09:19:17.072Z,2.91
2022-12-06T09:21:44.612Z,2.93
2022-12-06T09:24:17.542Z,2.99
2022-12-06T09:26:44.514Z,3.03
2022-12-06T09:29:12.408Z,3.04
2022-12-06T09:31:40.442Z,2.99
2022-12-06T09:34:10.042Z,2.98
2022-12-06T09:36:59.172Z,3.14
2022-12-06T09:39:34.485Z,3.24
2022-12-06T09:42:01.352Z,3.15
2022-12-06T09:45:01.893Z,3.20
2022-12-06T09:48:16.855Z,3.26
2022-12-06T09:51:32.157Z,3.37
2022-12-06T09:54:18.838Z,3.42
2022-12-06T09:56:58.279Z,3.45
2022-12-06T09:59:51.440Z,3.45
2022-12-06T10:02:33.754Z,3.48
2022-12-06T10:05:22.298Z,3.59
2022-12-06T10:08:24.991Z,3.69
2022-12-06T10:11:08.520Z,3.80
2022-12-06T10:13:54.267Z,3.76
2022-12-06T10:17:09.633Z,3.77
2022-12-06T10:20:33.290Z,3.72
2022-12-06T10:23:11.177Z,3.76
2022-12-06T10:25:44.316Z,3.72
2022-12-06T10:28:26.588Z,3.78
2022-12-06T10:31:04.800Z,3.78
2022-12-06T10:33:39.666Z,3.78
2022-12-06T10:36:11.609Z,3.78
2022-12-06T10:39:10.554Z,3.77
2022-12-06T10:42:03.680Z,3.71
2022-12-06T10:44:40.920Z,3.68
2022-12-06T10:47:24.903Z,3.56
2022-12-06T10:50:20.915Z,3.62
2022-12-06T10:53:26.747Z,3.56
2022-12-06T10:56:20.446Z,3.55
2022-12-06T10:59:36.510Z,3.54
2022-12-06T11:02:26.077Z,3.64
2022-12-06T11:04:58.343Z,3.67
2022-12-06T11:07:41.302Z,3.59
2022-12-06T11:10:31.739Z,3.70
2022-12-06T11:13:40.563Z,3.65
2022-12-06T11:16:22.505Z,3.64
2022-12-06T11:18:50.220Z,3.65
2022-12-06T11:21:53.332Z,3.59
2022-12-06T11:24:47.750Z,3.68
2022-12-06T11:27:26.819Z,3.68
2022-12-06T11:29:53.831Z,3.69
2022-12-06T11:32:21.256Z,3.70
2022-12-06T11:34:52.791Z,3.69
2022-12-06T11:37:23.722Z,3.68
2022-12-06T11:39:56.587Z,3.69
2022-12-06T11:42:27.840Z,3.67
2022-12-06T11:45:04.315Z,3.67
2022-12-06T11:47:31.406Z,3.64
2022-12-06T11:50:04.271Z,3.67
2022-12-06T11:52:50.911Z,3.70
2022-12-06T11:55:23.624Z,3.69
2022-12-06T11:58:01.742Z,3.68
2022-12-06T12:00:31.159Z,3.64
2022-12-06T12:02:58.817Z,3.61
2022-12-06T12:05:31.139Z,3.51
2022-12-06T12:08:19.627Z,3.53
2022-12-06T12:10:58.581Z,3.53
2022-12-06T12:13:46.513Z,3.53
2022-12-06T12:16:28.991Z,3.65
2022-12-06T12:19:03.108Z,3.59
2022-12-06T12:21:36.500Z,3.60
2022-12-06T12:24:05.396Z,3.52
2022-12-06T12:26:39.781Z,3.53
2022-12-06T12:29:16.529Z,3.52
2022-12-06T12:32:11.471Z,3.37
2022-12-06T12:34:42.920Z,3.41
2022-12-06T12:37:21.023Z,3.42
2022-12-06T12:39:54.842Z,3.43
2022-12-06T12:42:34.788Z,3.45
2022-12-06T12:45:05.632Z,3.39
2022-12-06T12:47:32.961Z,3.37
2022-12-06T12:50:18.192Z,3.26
2022-12-06T12:52:45.573Z,3.27
2022-12-06T12:55:23.280Z,3.28
2022-12-06T12:58:00.333Z,3.37
2022-12-06T13:00:38.852Z,3.36
2022-12-06T13:03:34.758Z,3.52
2022-12-06T13:06:00.478Z,3.46
2022-12-06T13:08:36.117Z,3.40
2022-12-06T13:11:05.445Z,3.40
2022-12-06T13:13:44.805Z,3.34
2022-12-06T13:16:26.025Z,3.38
2022-12-06T13:18:56.395Z,3.34
2022-12-06T13:21:36.726Z,3.38
2022-12-06T13:24:24.279Z,3.38
2022-12-06T13:27:03.842Z,3.42
2022-12-06T13:29:37.146Z,3.40
2022-12-06T13:32:14.271Z,3.40
2022-12-06T13:34:52.340Z,3.28
2022-12-06T13:37:36.572Z,3.29
2022-12-06T13:40:05.899Z,3.28
2022-12-06T13:42:41.319Z,3.32
2022-12-06T13:45:43.670Z,3.36
2022-12-06T13:48:25.651Z,3.37
2022-12-06T13:51:35.389Z,3.33
2022-12-06T13:54:05.429Z,3.29
2022-12-06T13:56:35.494Z,3.39
2022-12-06T13:59:12.665Z,3.37
2022-12-06T14:02:01.191Z,3.33
2022-12-06T14:09:46.953Z,3.31
2022-12-06T14:12:24.716Z,3.28
2022-12-06T14:15:04.497Z,3.25
2022-12-06T14:20:31.507Z,3.15
2022-12-06T14:22:58.462Z,3.21
2022-12-06T14:25:29.640Z,3.24
2022-12-06T14:28:10.385Z,3.27
2022-12-06T14:30:37.517Z,3.31
2022-12-06T14:33:19.559Z,3.26
2022-12-06T14:35:53.892Z,3.19
2022-12-06T14:38:28.168Z,3.21
2022-12-06T14:41:14.540Z,3.25
2022-12-06T14:43:46.595Z,3.21
2022-12-06T14:46:16.497Z,3.17
2022-12-06T14:49:03.244Z,3.12
2022-12-06T14:51:40.994Z,3.12
2022-12-06T14:54:19.396Z,3.16
2022-12-06T14:56:46.477Z,3.17
2022-12-06T14:59:13.432Z,3.19
2022-12-06T15:01:49.868Z,3.16
2022-12-06T15:04:35.292Z,3.14
2022-12-06T15:07:02.524Z,3.21
2022-12-06T15:09:31.591Z,3.19
2022-12-06T15:12:46.461Z,3.15
2022-12-06T15:15:36.421Z,3.20
2022-12-06T15:18:22.660Z,3.21
2022-12-06T15:20:50.465Z,3.21
2022-12-06T15:23:41.509Z,3.13
2022-12-06T15:26:11.968Z,3.14
2022-12-06T15:28:39.720Z,3.15
2022-12-06T15:31:21.355Z,3.11
2022-12-06T15:33:49.370Z,3.12
2022-12-06T15:36:26.584Z,3.17
2022-12-06T15:38:53.796Z,3.27
2022-12-06T15:41:27.376Z,3.22
2022-12-06T15:43:57.409Z,3.22
2022-12-06T15:46:28.051Z,3.26
2022-12-06T15:48:56.039Z,3.16
2022-12-06T15:51:26.547Z,3.20
2022-12-06T15:53:55.933Z,3.19
2022-12-06T15:56:27.248Z,3.21
2022-12-06T15:58:54.547Z,3.26
2022-12-06T16:01:33.631Z,3.24
2022-12-06T16:04:01.074Z,3.22
2022-12-06T16:06:29.413Z,3.14
2022-12-06T16:08:56.617Z,3.30
2022-12-06T16:11:26.156Z,3.17
2022-12-06T16:13:53.583Z,3.10
2022-12-06T16:16:22.555Z,3.12
2022-12-06T16:18:50.902Z,3.20
2022-12-06T16:21:29.850Z,3.12
2022-12-06T16:24:16.739Z,3.15
2022-12-06T16:26:45.262Z,3.26
2022-12-06T16:29:23.137Z,3.26
2022-12-06T16:31:51.417Z,3.13
2022-12-06T16:34:19.119Z,3.21
2022-12-06T16:36:56.375Z,3.16
2022-12-06T16:39:23.540Z,3.08
2022-12-06T16:41:50.502Z,3.15
2022-12-06T16:44:17.468Z,3.15
2022-12-06T16:46:45.722Z,3.19
2022-12-06T16:52:08.407Z,3.17
2022-12-06T16:54:35.959Z,3.15
2022-12-06T16:57:03.304Z,3.11
2022-12-06T16:59:30.649Z,3.13
2022-12-06T17:01:58.019Z,3.13
2022-12-06T17:04:26.066Z,3.10
2022-12-06T17:06:53.402Z,3.09
2022-12-06T17:09:20.740Z,3.07
2022-12-06T17:12:03.371Z,3.09
2022-12-06T17:14:31.002Z,3.13
2022-12-06T17:17:03.640Z,3.13
2022-12-06T17:19:31.610Z,3.01
2022-12-06T17:21:59.471Z,2.98
2022-12-06T17:24:27.554Z,3.06
2022-12-06T17:26:55.849Z,3.08
2022-12-06T17:29:24.064Z,3.05
2022-12-06T17:31:52.226Z,3.09
2022-12-06T17:34:20.635Z,3.06
2022-12-06T17:36:49.266Z,3.13
2022-12-06T17:39:18.850Z,3.15
2022-12-06T17:42:05.136Z,3.11
2022-12-06T17:44:33.909Z,3.09
2022-12-06T17:47:01.674Z,3.10
2022-12-06T17:49:29.439Z,3.10
2022-12-06T17:51:57.091Z,3.08
2022-12-06T17:54:24.519Z,3.14
2022-12-06T17:56:53.477Z,3.19
2022-12-06T17:59:23.039Z,3.21
2022-12-06T18:02:14.211Z,3.16
2022-12-06T18:04:38.323Z,3.31
2022-12-06T18:07:06.035Z,3.31
2022-12-06T18:09:33.425Z,3.44
2022-12-06T18:12:01.249Z,3.41
2022-12-06T18:14:29.220Z,3.22
2022-12-06T18:16:56.724Z,3.34
2022-12-06T18:19:24.278Z,3.37
2022-12-06T18:21:53.087Z,3.42
2022-12-06T18:24:23.862Z,3.34
2022-12-06T18:26:52.967Z,3.35
2022-12-06T18:29:22.692Z,3.26
2022-12-06T18:31:50.687Z,3.16
2022-12-06T18:34:18.385Z,3.10
2022-12-06T18:36:45.803Z,3.12
2022-12-06T18:39:24.136Z,3.13
2022-12-06T18:41:52.856Z,3.17
2022-12-06T18:44:20.312Z,3.38
2022-12-06T18:46:47.850Z,3.33
2022-12-06T18:49:15.290Z,3.15
2022-12-06T18:51:42.676Z,3.05
2022-12-06T18:54:13.475Z,3.24
2022-12-06T18:56:40.911Z,3.17
2022-12-06T18:59:08.821Z,3.15
2022-12-06T19:01:38.624Z,3.09
2022-12-06T19:04:08.778Z,3.08
2022-12-06T19:06:37.637Z,3.11
2022-12-06T19:09:08.155Z,3.19
2022-12-06T19:11:39.828Z,3.21
2022-12-06T19:14:07.657Z,3.16
2022-12-06T19:16:46.601Z,3.22
2022-12-06T19:19:25.568Z,3.23
2022-12-06T19:21:54.370Z,3.07
2022-12-06T19:24:24.270Z,3.26
2022-12-06T19:26:53.039Z,3.37
2022-12-06T19:29:20.634Z,3.34
2022-12-06T19:31:48.495Z,3.29
2022-12-06T19:34:20.637Z,3.15
2022-12-06T19:36:49.617Z,3.13
2022-12-06T19:39:17.903Z,3.22
2022-12-06T19:42:03.954Z,3.21
2022-12-06T19:44:31.665Z,3.20
2022-12-06T19:46:59.040Z,3.14
2022-12-06T19:49:27.210Z,3.14
2022-12-06T19:51:54.616Z,3.15
2022-12-06T19:54:25.003Z,3.15
2022-12-06T19:56:53.811Z,3.15
2022-12-06T19:59:21.759Z,3.11
2022-12-06T20:01:50.206Z,2.94
2022-12-06T20:04:20.098Z,2.83
2022-12-06T20:06:47.489Z,2.85
2022-12-06T20:09:15.097Z,2.83
2022-12-06T20:12:01.516Z,2.81
2022-12-06T20:14:29.762Z,2.84
2022-12-06T20:16:56.770Z,3.07
2022-12-06T20:19:24.306Z,3.02
2022-12-06T20:21:51.648Z,2.95
2022-12-06T20:24:21.851Z,3.19
2022-12-06T20:26:51.676Z,3.28
2022-12-06T20:29:19.916Z,3.28
2022-12-06T20:31:49.919Z,3.42
2022-12-06T20:34:17.330Z,3.57
2022-12-06T20:36:44.592Z,3.55
2022-12-06T20:39:20.918Z,3.45
2022-12-06T20:41:49.272Z,3.41
2022-12-06T20:44:17.527Z,3.28
2022-12-06T20:46:45.627Z,3.36
2022-12-06T20:49:13.233Z,3.20
2022-12-06T20:51:40.877Z,3.15
2022-12-06T20:54:08.684Z,3.06
2022-12-06T20:56:39.085Z,3.29
2022-12-06T20:59:07.548Z,3.47
2022-12-06T21:01:37.240Z,3.29
2022-12-06T21:04:04.785Z,3.12
2022-12-06T21:06:32.396Z,2.91
2022-12-06T21:08:59.777Z,2.76
2022-12-06T21:11:27.187Z,2.64
2022-12-06T21:13:56.023Z,2.69
2022-12-06T21:16:28.679Z,2.68
2022-12-06T21:19:00.784Z,2.68
2022-12-06T21:21:34.453Z,3.10
2022-12-06T21:24:04.029Z,3.30
2022-12-06T21:26:32.323Z,3.38
2022-12-06T21:28:59.799Z,3.27
2022-12-06T21:31:32.613Z,3.26
2022-12-06T21:34:00.512Z,3.25
2022-12-06T21:36:28.000Z,3.28
2022-12-06T21:38:55.822Z,3.43
2022-12-06T21:41:23.353Z,3.30
2022-12-06T21:43:50.919Z,3.25
2022-12-06T21:46:21.099Z,3.17
2022-12-06T21:48:56.549Z,3.17
2022-12-06T21:51:25.859Z,3.36
2022-12-06T21:53:53.604Z,3.29
2022-12-06T21:56:26.441Z,3.21
2022-12-06T21:58:54.447Z,3.09
2022-12-06T22:01:24.511Z,3.30
2022-12-06T22:03:53.397Z,3.32
2022-12-06T22:06:21.043Z,3.23
2022-12-06T22:08:49.323Z,3.14
2022-12-06T22:11:18.779Z,3.32
2022-12-06T22:13:47.165Z,3.47
2022-12-06T22:16:15.299Z,3.39
2022-12-06T22:18:45.979Z,3.20
2022-12-06T22:21:19.507Z,2.90
2022-12-06T22:23:47.474Z,2.98
2022-12-06T22:26:17.458Z,3.00
2022-12-06T22:28:45.441Z,3.00
2022-12-06T22:31:16.982Z,3.18
2022-12-06T22:33:44.838Z,3.21
2022-12-06T22:36:13.326Z,3.21
2022-12-06T22:38:41.151Z,3.19
2022-12-06T22:41:09.037Z,3.34
2022-12-06T22:43:37.179Z,3.26
2022-12-06T22:46:23.037Z,3.32
2022-12-06T22:48:50.775Z,3.52
2022-12-06T22:51:20.314Z,3.33
2022-12-06T22:53:52.184Z,3.37
2022-12-06T22:56:19.848Z,3.36
2022-12-06T22:58:48.173Z,3.33
2022-12-06T23:01:18.141Z,3.37
2022-12-06T23:03:47.077Z,3.40
2022-12-06T23:06:16.008Z,3.50
2022-12-06T23:08:43.635Z,3.40
2022-12-06T23:11:13.725Z,3.31
2022-12-06T23:13:41.703Z,3.34
2022-12-06T23:16:19.588Z,3.37
2022-12-06T23:18:47.482Z,3.32
2022-12-06T23:21:17.525Z,3.50
2022-12-06T23:23:50.652Z,3.40
2022-12-06T23:26:21.868Z,3.51
2022-12-06T23:28:49.870Z,3.33
2022-12-06T23:31:20.220Z,3.29
2022-12-06T23:33:48.048Z,3.32
2022-12-06T23:36:19.737Z,3.35
2022-12-06T23:38:47.371Z,3.36
2022-12-06T23:41:20.518Z,3.42
2022-12-06T23:43:48.005Z,3.40
2022-12-06T23:46:21.953Z,3.49
2022-12-06T23:48:50.394Z,3.38
2022-12-06T23:51:20.664Z,3.39
2022-12-06T23:53:59.053Z,3.44
2022-12-06T23:56:28.701Z,3.55
2022-12-06T23:58:56.690Z,3.49
